createdAt,value
2022-10-05T00:01:54.845Z,6.97
2022-10-05T00:04:26.260Z,7.65
2022-10-05T00:07:17.600Z,6.80
2022-10-05T00:09:45.617Z,6.93
2022-10-05T00:12:16.912Z,6.85
2022-10-05T00:14:44.686Z,6.82
2022-10-05T00:17:22.289Z,7.25
2022-10-05T00:19:52.217Z,6.38
2022-10-05T00:22:30.117Z,6.82
2022-10-05T00:24:58.693Z,5.97
2022-10-05T00:27:27.294Z,6.20
2022-10-05T00:29:58.422Z,6.57
2022-10-05T00:32:24.789Z,6.03
2022-10-05T00:34:51.373Z,5.82
2022-10-05T00:37:17.943Z,5.95
2022-10-05T00:39:44.358Z,5.63
2022-10-05T00:42:49.117Z,5.90
2022-10-05T00:45:27.226Z,5.43
2022-10-05T00:48:38.981Z,6.55
2022-10-05T00:51:26.152Z,5.88
2022-10-05T00:53:54.740Z,5.50
2022-10-05T00:56:58.006Z,5.53
2022-10-05T00:59:43.704Z,5.53
2022-10-05T01:02:23.716Z,5.38
2022-10-05T01:05:11.905Z,5.30
2022-10-05T01:07:50.763Z,5.63
2022-10-05T01:10:23.329Z,5.60
2022-10-05T01:13:08.315Z,4.82
2022-10-05T01:15:57.775Z,4.80
2022-10-05T01:18:48.529Z,4.57
2022-10-05T01:21:20.313Z,5.15
2022-10-05T01:24:19.058Z,4.80
2022-10-05T01:26:51.313Z,4.18
2022-10-05T01:29:27.285Z,4.65
2022-10-05T01:32:15.541Z,4.63
2022-10-05T01:37:29.826Z,4.30
2022-10-05T01:40:22.748Z,4.00
2022-10-05T01:42:55.937Z,4.43
2022-10-05T01:45:53.940Z,5.03
2022-10-05T01:48:37.854Z,4.13
2022-10-05T01:51:12.095Z,4.40
2022-10-05T01:53:48.569Z,4.65
2022-10-05T07:58:44.396Z,3.47
2022-10-05T08:03:54.305Z,3.00
2022-10-05T08:06:34.671Z,3.28
2022-10-05T08:09:14.804Z,3.17
2022-10-05T08:12:02.482Z,3.25
2022-10-05T08:14:37.553Z,3.00
2022-10-05T08:17:11.818Z,3.13
2022-10-05T08:19:54.259Z,3.00
2022-10-05T08:22:26.086Z,3.95
2022-10-05T08:24:59.434Z,3.60
2022-10-05T08:27:32.093Z,3.47
2022-10-05T08:30:01.531Z,3.50
2022-10-05T08:32:31.869Z,3.45
2022-10-05T08:35:11.624Z,3.45
2022-10-05T08:37:41.157Z,3.55
2022-10-05T08:40:35.728Z,3.38
2022-10-05T08:43:35.330Z,3.45
2022-10-05T08:46:20.187Z,3.60
2022-10-05T08:48:57.148Z,3.88
2022-10-05T08:51:45.740Z,3.75
2022-10-05T08:54:38.580Z,3.40
2022-10-05T08:57:46.549Z,3.50
2022-10-05T09:00:19.063Z,3.13
2022-10-05T09:03:13.429Z,3.33
2022-10-05T09:05:42.766Z,2.92
2022-10-05T09:08:37.989Z,3.22
2022-10-05T09:11:35.796Z,3.00
2022-10-05T09:14:21.785Z,3.40
2022-10-05T09:16:52.313Z,3.10
2022-10-05T09:19:57.056Z,3.22
2022-10-05T09:22:38.823Z,3.17
2022-10-05T09:25:29.019Z,2.85
2022-10-05T09:27:57.592Z,2.85
2022-10-05T09:30:33.176Z,2.92
2022-10-05T09:33:13.429Z,3.40
2022-10-05T09:35:54.989Z,3.00
2022-10-05T09:38:50.745Z,3.60
2022-10-05T09:41:35.350Z,3.22
2022-10-05T09:44:20.599Z,3.45
2022-10-05T09:47:21.140Z,2.67
2022-10-05T09:52:59.692Z,2.35
2022-10-05T09:55:42.118Z,2.63
2022-10-05T09:58:44.440Z,3.08
2022-10-05T10:01:33.807Z,2.72
2022-10-05T10:04:28.609Z,3.10
2022-10-05T10:07:27.356Z,3.42
2022-10-05T10:10:15.457Z,3.15
2022-10-05T10:12:52.717Z,3.20
2022-10-05T10:15:35.008Z,3.85
2022-10-05T10:18:25.308Z,3.22
2022-10-05T10:20:58.939Z,3.40
2022-10-05T10:24:02.653Z,3.10
2022-10-05T10:27:06.599Z,3.65
2022-10-05T10:29:54.787Z,4.03
2022-10-05T10:32:27.120Z,3.53
2022-10-05T10:34:59.432Z,3.70
2022-10-05T10:37:45.201Z,3.20
2022-10-05T10:40:37.990Z,3.63
2022-10-05T10:43:35.841Z,3.53
2022-10-05T10:46:20.790Z,3.78
2022-10-05T10:48:50.219Z,3.50
2022-10-05T10:51:35.265Z,3.65
2022-10-05T10:54:25.169Z,3.28
2022-10-05T10:57:05.923Z,3.65
2022-10-05T11:00:07.937Z,3.58
2022-10-05T11:02:59.054Z,3.10
2022-10-05T11:05:49.003Z,2.70
2022-10-05T11:08:50.669Z,3.45
2022-10-05T11:11:19.872Z,2.42
2022-10-05T11:13:53.705Z,2.92
2022-10-05T11:16:55.013Z,2.92
2022-10-05T11:20:03.668Z,2.83
2022-10-05T11:22:46.595Z,3.03
2022-10-05T11:28:00.365Z,3.58
2022-10-05T11:31:04.525Z,4.00
2022-10-05T11:34:02.472Z,3.38
2022-10-05T11:37:04.648Z,3.08
2022-10-05T11:39:55.641Z,3.00
2022-10-05T11:42:50.749Z,3.30
2022-10-05T11:45:24.094Z,3.35
2022-10-05T11:48:03.979Z,3.13
2022-10-05T11:50:39.934Z,2.95
2022-10-05T11:53:07.543Z,3.35
2022-10-05T11:55:43.562Z,3.22
2022-10-05T11:58:19.454Z,3.60
2022-10-05T12:01:18.111Z,3.33
2022-10-05T12:03:56.968Z,3.13
2022-10-05T12:06:42.093Z,2.72
2022-10-05T12:09:24.985Z,2.83
2022-10-05T12:12:14.167Z,3.13
2022-10-05T12:15:03.706Z,3.20
2022-10-05T12:17:37.969Z,3.60
2022-10-05T12:20:15.517Z,3.20
2022-10-05T12:23:06.363Z,3.08
2022-10-05T12:26:01.469Z,3.00
2022-10-05T12:28:35.206Z,3.03
2022-10-05T12:31:16.817Z,3.17
2022-10-05T12:34:01.894Z,2.85
2022-10-05T12:37:03.609Z,2.97
2022-10-05T12:39:33.685Z,2.72
2022-10-05T12:42:13.449Z,3.47
2022-10-05T12:45:24.697Z,3.75
2022-10-05T12:48:05.758Z,3.10
2022-10-05T12:50:37.202Z,3.97
2022-10-05T12:53:25.137Z,3.58
2022-10-05T12:56:13.587Z,3.22
2022-10-05T12:58:47.073Z,3.28
2022-10-05T13:01:37.110Z,3.05
2022-10-05T13:04:03.399Z,3.72
2022-10-05T13:06:42.170Z,3.63
2022-10-05T13:09:18.730Z,3.42
2022-10-05T13:11:50.853Z,3.55
2022-10-05T13:14:37.926Z,3.42
2022-10-05T13:17:15.014Z,3.22
2022-10-05T13:19:45.900Z,3.67
2022-10-05T13:22:30.594Z,3.67
2022-10-05T13:25:18.645Z,3.58
2022-10-05T13:28:12.715Z,3.83
2022-10-05T13:30:41.977Z,3.65
2022-10-05T13:33:40.661Z,3.53
2022-10-05T13:36:22.573Z,3.35
2022-10-05T13:38:58.338Z,4.07
2022-10-05T13:44:28.630Z,3.88
2022-10-05T13:49:26.907Z,2.65
2022-10-05T13:51:58.905Z,3.83
2022-10-05T13:54:40.490Z,3.63
2022-10-05T13:57:23.664Z,3.47
2022-10-05T13:59:54.688Z,3.10
2022-10-05T14:02:24.841Z,3.35
2022-10-05T14:04:58.428Z,3.60
2022-10-05T14:07:38.500Z,3.35
2022-10-05T14:10:11.879Z,3.20
2022-10-05T14:12:43.632Z,3.53
2022-10-05T14:15:28.049Z,3.25
2022-10-05T14:17:54.527Z,3.15
2022-10-05T14:20:31.472Z,2.65
2022-10-05T14:23:01.298Z,3.17
2022-10-05T14:25:29.063Z,2.97
2022-10-05T14:28:25.991Z,3.08
2022-10-05T14:31:13.579Z,3.10
2022-10-05T14:33:40.511Z,3.17
2022-10-05T14:36:21.259Z,3.22
2022-10-05T14:38:49.931Z,2.75
2022-10-05T14:41:27.285Z,3.30
2022-10-05T14:44:04.107Z,3.40
2022-10-05T14:46:34.459Z,3.50
2022-10-05T14:49:24.124Z,3.42
2022-10-05T14:51:51.481Z,3.00
2022-10-05T14:54:36.118Z,3.13
2022-10-05T14:57:08.001Z,3.13
2022-10-05T14:59:47.244Z,3.08
2022-10-05T15:02:36.962Z,2.78
2022-10-05T15:05:15.508Z,3.63
2022-10-05T15:07:44.853Z,3.03
2022-10-05T15:10:38.708Z,3.05
2022-10-05T15:13:12.615Z,3.10
2022-10-05T15:15:54.580Z,2.70
2022-10-05T15:21:23.713Z,2.95
2022-10-05T15:23:55.137Z,2.55
2022-10-05T15:26:47.769Z,2.80
2022-10-05T15:29:38.499Z,2.90
2022-10-05T15:32:32.356Z,2.38
2022-10-05T15:35:24.041Z,3.05
2022-10-05T15:37:55.082Z,2.75
2022-10-05T15:40:35.367Z,2.53
2022-10-05T15:43:04.585Z,2.80
2022-10-05T15:45:34.099Z,2.53
2022-10-05T15:50:56.771Z,2.47
2022-10-05T15:53:34.037Z,2.92
2022-10-05T15:56:25.072Z,2.13
2022-10-05T15:58:59.164Z,2.78
2022-10-05T16:01:49.810Z,2.60
2022-10-05T16:04:23.545Z,2.78
2022-10-05T16:07:14.482Z,2.53
2022-10-05T16:09:52.977Z,2.90
2022-10-05T16:12:30.768Z,2.53
2022-10-05T16:15:16.126Z,2.25
2022-10-05T16:17:54.817Z,2.47
2022-10-05T16:20:40.914Z,2.75
2022-10-05T16:23:29.712Z,2.63
2022-10-05T16:26:12.497Z,2.60
2022-10-05T16:28:49.760Z,2.20
2022-10-05T16:31:21.189Z,2.88
2022-10-05T16:34:06.482Z,2.40
2022-10-05T16:37:04.574Z,2.25
2022-10-05T16:39:52.283Z,2.40
2022-10-05T16:42:38.270Z,2.72
2022-10-05T16:45:23.962Z,2.38
2022-10-05T16:48:21.941Z,2.53
2022-10-05T16:51:07.630Z,2.72
2022-10-05T16:53:39.445Z,4.15
2022-10-05T16:56:13.601Z,2.67
2022-10-05T16:59:06.655Z,3.35
2022-10-05T17:01:43.590Z,2.95
2022-10-05T17:04:49.576Z,3.35
2022-10-05T17:07:47.509Z,5.72
2022-10-05T17:10:48.693Z,4.32
2022-10-05T17:13:19.590Z,3.22
2022-10-05T17:16:03.775Z,2.95
2022-10-05T17:19:02.476Z,3.10
2022-10-05T17:22:03.024Z,2.83
2022-10-05T17:24:44.538Z,2.70
2022-10-05T17:27:25.230Z,3.25
2022-10-05T17:29:56.660Z,2.67
2022-10-05T17:32:22.932Z,3.25
2022-10-05T17:35:01.535Z,2.58
2022-10-05T17:37:27.841Z,3.45
2022-10-05T17:39:56.220Z,2.53
2022-10-05T17:42:32.362Z,2.92
2022-10-05T17:45:12.050Z,2.42
2022-10-05T17:47:55.920Z,2.83
2022-10-05T17:50:57.501Z,2.95
2022-10-05T17:54:06.532Z,2.75
2022-10-05T17:56:58.765Z,2.47
2022-10-05T17:59:46.606Z,2.80
2022-10-05T18:02:36.363Z,2.95
2022-10-05T18:05:12.465Z,3.00
2022-10-05T18:07:40.095Z,3.13
2022-10-05T18:10:09.431Z,2.88
2022-10-05T18:12:48.244Z,3.05
2022-10-05T18:15:24.057Z,3.13
2022-10-05T18:21:08.340Z,3.20
2022-10-05T18:23:36.245Z,3.00
2022-10-05T18:26:07.813Z,3.20
2022-10-05T18:28:51.632Z,3.40
2022-10-05T18:31:39.139Z,3.17
2022-10-05T18:34:43.483Z,2.63
2022-10-05T18:37:36.415Z,2.70
2022-10-05T18:40:27.137Z,3.10
2022-10-05T18:43:13.738Z,2.90
2022-10-05T18:46:08.067Z,2.67
2022-10-05T18:48:57.783Z,2.67
2022-10-05T18:51:28.597Z,3.25
2022-10-05T18:54:27.574Z,3.85
2022-10-05T18:56:54.151Z,3.30
2022-10-05T18:59:39.440Z,3.70
2022-10-05T19:02:10.888Z,3.70
2022-10-05T19:04:57.819Z,4.50
2022-10-05T19:07:43.905Z,4.82
2022-10-05T19:10:28.587Z,4.88
2022-10-05T19:13:02.581Z,5.65
2022-10-05T19:15:50.944Z,6.07
2022-10-05T19:18:30.497Z,6.18
2022-10-05T19:21:25.099Z,6.28
2022-10-05T19:24:16.039Z,10.63
2022-10-05T19:27:01.536Z,9.48
2022-10-05T19:29:41.259Z,8.77
2022-10-05T19:32:17.416Z,5.90
2022-10-05T19:34:43.716Z,4.70
2022-10-05T19:37:16.866Z,3.63
2022-10-05T19:40:20.433Z,4.13
2022-10-05T19:42:56.278Z,3.45
2022-10-05T19:48:08.432Z,3.65
2022-10-05T19:50:37.666Z,3.13
2022-10-05T19:53:10.319Z,2.65
2022-10-05T19:55:41.826Z,3.05
2022-10-05T19:58:26.034Z,2.17
2022-10-05T20:01:00.944Z,2.97
2022-10-05T20:03:29.733Z,2.75
2022-10-05T20:06:01.557Z,2.60
2022-10-05T20:09:00.455Z,2.63
2022-10-05T20:11:27.895Z,2.80
2022-10-05T20:13:55.065Z,2.80
2022-10-05T20:16:50.202Z,2.40
2022-10-05T20:19:50.535Z,2.95
2022-10-05T20:22:27.081Z,2.38
2022-10-05T20:24:56.053Z,2.22
2022-10-05T20:27:48.735Z,2.78
2022-10-05T20:30:30.859Z,2.38
2022-10-05T20:35:27.719Z,2.42
2022-10-05T20:38:00.128Z,2.20
2022-10-05T20:40:28.966Z,2.15
2022-10-05T20:42:56.765Z,2.20
2022-10-05T20:45:23.416Z,2.40
2022-10-05T20:47:50.931Z,2.30
2022-10-05T20:50:17.554Z,2.17
2022-10-05T20:52:44.142Z,2.60
2022-10-05T20:55:11.502Z,1.70
2022-10-05T20:57:41.484Z,2.08
2022-10-05T21:00:09.786Z,1.77
2022-10-05T21:02:37.986Z,1.52
2022-10-05T21:05:04.741Z,1.90
2022-10-05T21:07:34.012Z,2.00
2022-10-05T21:10:01.197Z,2.08
2022-10-05T21:12:27.580Z,1.70
2022-10-05T21:14:54.026Z,1.58
2022-10-05T21:17:20.397Z,1.63
2022-10-05T21:19:47.291Z,1.70
2022-10-05T21:22:13.740Z,1.90
2022-10-05T21:24:40.888Z,1.38
2022-10-05T21:27:07.595Z,1.63
2022-10-05T21:29:35.253Z,1.60
2022-10-05T21:32:03.429Z,1.52
2022-10-05T21:34:30.040Z,1.60
2022-10-05T21:36:56.401Z,1.73
2022-10-05T21:39:23.533Z,1.52
2022-10-05T21:41:50.009Z,1.70
2022-10-05T21:44:16.610Z,1.45
2022-10-05T21:46:43.027Z,1.77
2022-10-05T21:49:09.773Z,1.42
2022-10-05T21:51:36.614Z,1.58
2022-10-05T21:54:08.316Z,1.55
2022-10-05T21:56:38.609Z,1.48
2022-10-05T21:59:07.585Z,1.52
2022-10-05T22:01:35.958Z,1.58
2022-10-05T22:04:06.167Z,2.00
2022-10-05T22:06:33.486Z,1.10
2022-10-05T22:08:59.938Z,1.50
2022-10-05T22:11:26.377Z,1.55
2022-10-05T22:13:53.657Z,1.52
2022-10-05T22:16:21.887Z,1.58
2022-10-05T22:18:48.869Z,1.98
2022-10-05T22:21:15.649Z,1.20
2022-10-05T22:23:43.477Z,1.52
2022-10-05T22:26:11.844Z,1.73
2022-10-05T22:28:39.813Z,1.60
2022-10-05T22:31:17.378Z,2.28
2022-10-05T22:33:44.159Z,1.77
2022-10-05T22:36:12.945Z,1.88
2022-10-05T22:38:49.128Z,1.95
2022-10-05T22:41:19.943Z,1.70
2022-10-05T22:43:52.717Z,2.25
2022-10-05T22:46:20.269Z,1.85
2022-10-05T22:48:49.358Z,1.70
2022-10-05T22:51:19.102Z,2.03
2022-10-05T22:53:45.756Z,1.70
2022-10-05T22:56:13.513Z,1.88
2022-10-05T22:58:41.157Z,1.70
2022-10-05T23:01:12.809Z,1.63
2022-10-05T23:03:49.227Z,2.20
2022-10-05T23:06:18.393Z,2.75
2022-10-05T23:08:55.742Z,2.35
2022-10-05T23:11:27.170Z,1.85
2022-10-05T23:14:05.641Z,2.30
2022-10-05T23:16:32.884Z,2.20
2022-10-05T23:19:03.186Z,2.40
2022-10-05T23:21:30.352Z,2.28
2022-10-05T23:23:59.767Z,2.80
2022-10-05T23:26:28.544Z,2.15
2022-10-05T23:28:55.041Z,2.03
2022-10-05T23:31:23.766Z,2.17
2022-10-05T23:33:50.975Z,2.17
2022-10-05T23:36:23.631Z,2.35
2022-10-05T23:38:54.847Z,2.03
2022-10-05T23:41:21.435Z,2.50
2022-10-05T23:43:49.539Z,2.17
2022-10-05T23:46:21.183Z,2.03
2022-10-05T23:48:48.979Z,1.77
2022-10-05T23:51:19.107Z,2.45
2022-10-05T23:53:48.148Z,2.35
2022-10-05T23:56:19.935Z,1.85
2022-10-05T23:58:46.521Z,2.20
